createdAt,value
2022-10-15T00:01:34.635Z,101.85
2022-10-15T00:06:34.520Z,102.82
2022-10-15T00:09:01.882Z,100.68
2022-10-15T00:11:30.264Z,99.35
2022-10-15T00:14:00.375Z,102.85
2022-10-15T00:16:29.664Z,96.20
2022-10-15T00:18:59.602Z,93.95
2022-10-15T00:21:27.513Z,98.45
2022-10-15T00:23:55.569Z,97.95
2022-10-15T00:26:29.143Z,98.75
2022-10-15T00:29:02.530Z,97.82
2022-10-15T00:31:32.650Z,98.78
2022-10-15T00:34:02.714Z,95.82
2022-10-15T00:36:34.632Z,103.47
2022-10-15T00:39:04.694Z,99.97
2022-10-15T00:41:42.251Z,101.10
2022-10-15T00:44:22.455Z,101.38
2022-10-15T00:47:13.186Z,99.57
2022-10-15T00:49:54.977Z,94.63
2022-10-15T00:52:57.592Z,99.97
2022-10-15T00:55:33.177Z,93.18
2022-10-15T01:00:37.347Z,106.78
2022-10-15T01:03:05.061Z,99.97
2022-10-15T01:05:34.932Z,99.40
2022-10-15T01:08:02.092Z,99.80
2022-10-15T01:11:14.292Z,91.53
2022-10-15T01:13:58.857Z,98.80
2022-10-15T01:16:46.800Z,100.20
2022-10-15T01:19:47.609Z,99.55
2022-10-15T01:22:52.990Z,92.90
2022-10-15T01:26:25.329Z,104.78
2022-10-15T01:29:31.547Z,102.05
2022-10-15T01:32:06.718Z,103.57
2022-10-15T01:34:53.031Z,112.85
2022-10-15T01:37:53.058Z,104.82
2022-10-15T01:40:52.072Z,104.03
2022-10-15T01:43:56.012Z,98.25
2022-10-15T01:47:00.744Z,95.78
2022-10-15T01:49:35.017Z,94.60
2022-10-15T01:52:22.438Z,92.60
2022-10-15T01:54:52.924Z,97.35
2022-10-15T01:57:24.405Z,104.00
2022-10-15T01:59:52.551Z,111.20
2022-10-15T02:02:21.417Z,93.32
2022-10-15T02:04:48.866Z,97.47
2022-10-15T02:08:05.376Z,95.18
2022-10-15T02:11:03.858Z,92.63
2022-10-15T02:13:52.493Z,102.68
2022-10-15T02:16:43.434Z,97.63
2022-10-15T02:19:40.162Z,95.18
2022-10-15T02:22:19.236Z,89.07
2022-10-15T02:25:05.928Z,89.45
2022-10-15T02:27:35.482Z,92.78
2022-10-15T02:30:09.710Z,92.75
2022-10-15T02:32:39.897Z,93.75
2022-10-15T02:35:10.152Z,88.88
2022-10-15T02:37:48.812Z,93.20
2022-10-15T02:40:27.739Z,93.30
2022-10-15T02:42:55.532Z,88.85
2022-10-15T02:45:23.069Z,91.03
2022-10-15T02:47:50.268Z,89.10
2022-10-15T02:50:19.599Z,93.75
2022-10-15T02:52:46.868Z,92.75
2022-10-15T02:55:14.226Z,92.90
2022-10-15T02:57:42.140Z,92.70
2022-10-15T03:00:10.665Z,90.97
2022-10-15T03:02:39.124Z,96.15
2022-10-15T03:05:07.638Z,89.47
2022-10-15T03:07:34.781Z,97.20
2022-10-15T03:10:02.309Z,91.55
2022-10-15T03:12:29.909Z,93.75
2022-10-15T03:14:58.156Z,93.20
2022-10-15T03:17:26.109Z,89.63
2022-10-15T03:19:53.640Z,92.22
2022-10-15T03:22:22.357Z,85.72
2022-10-15T03:24:53.224Z,91.57
2022-10-15T03:27:25.403Z,92.43
2022-10-15T03:29:53.387Z,89.22
2022-10-15T03:32:22.507Z,87.85
2022-10-15T03:34:49.841Z,99.35
2022-10-15T03:37:19.239Z,94.88
2022-10-15T03:39:46.579Z,92.78
2022-10-15T03:42:15.179Z,93.38
2022-10-15T03:44:45.870Z,94.78
2022-10-15T03:47:16.795Z,92.97
2022-10-15T03:49:48.709Z,95.57
2022-10-15T03:52:16.416Z,90.28
2022-10-15T03:54:45.616Z,90.57
2022-10-15T03:57:15.324Z,92.50
2022-10-15T03:59:46.532Z,91.03
2022-10-15T04:02:15.008Z,96.70
2022-10-15T04:04:42.441Z,104.35
2022-10-15T04:07:09.793Z,94.35
2022-10-15T04:09:37.574Z,95.40
2022-10-15T04:12:22.092Z,90.03
2022-10-15T04:14:49.890Z,90.68
2022-10-15T04:17:18.053Z,96.25
2022-10-15T04:19:45.959Z,92.15
2022-10-15T04:22:15.144Z,92.28
2022-10-15T04:24:47.926Z,94.38
2022-10-15T04:27:25.794Z,94.40
2022-10-15T04:29:55.732Z,91.47
2022-10-15T04:32:23.283Z,94.35
2022-10-15T04:34:50.643Z,93.65
2022-10-15T04:37:25.543Z,99.20
2022-10-15T04:39:54.001Z,96.57
2022-10-15T04:42:22.003Z,95.20
2022-10-15T04:44:49.231Z,93.32
2022-10-15T04:47:16.417Z,91.22
2022-10-15T04:49:52.172Z,93.32
2022-10-15T04:52:35.348Z,93.90
2022-10-15T04:55:07.833Z,112.65
2022-10-15T04:57:38.358Z,109.78
2022-10-15T05:00:06.938Z,108.85
2022-10-15T05:02:34.260Z,98.40
2022-10-15T05:05:20.564Z,101.43
2022-10-15T05:08:04.590Z,109.18
2022-10-15T05:10:40.094Z,101.53
2022-10-15T05:13:08.985Z,101.65
2022-10-15T05:15:38.475Z,97.28
2022-10-15T05:18:08.944Z,97.93
2022-10-15T05:20:44.989Z,96.90
2022-10-15T05:23:15.848Z,103.45
2022-10-15T05:25:53.131Z,98.95
2022-10-15T05:28:23.952Z,98.63
2022-10-15T05:30:51.332Z,99.55
2022-10-15T05:33:18.676Z,96.00
2022-10-15T05:35:45.972Z,96.95
2022-10-15T05:38:13.178Z,93.97
2022-10-15T05:40:41.151Z,99.93
2022-10-15T05:43:16.318Z,91.78
2022-10-15T05:45:43.568Z,94.35
2022-10-15T05:48:10.759Z,92.93
2022-10-15T05:50:38.069Z,93.55
2022-10-15T05:53:09.272Z,89.68
2022-10-15T05:55:36.697Z,92.82
2022-10-15T05:58:05.052Z,90.15
2022-10-15T06:00:33.068Z,97.25
2022-10-15T06:03:00.349Z,99.93
2022-10-15T06:05:27.668Z,90.63
2022-10-15T06:07:56.588Z,87.50
2022-10-15T06:10:24.019Z,87.20
2022-10-15T06:12:51.746Z,89.30
2022-10-15T06:15:19.743Z,92.18
2022-10-15T06:17:46.896Z,90.15
2022-10-15T06:20:14.401Z,91.47
2022-10-15T06:22:41.604Z,86.85
2022-10-15T06:25:09.847Z,87.18
2022-10-15T06:27:37.224Z,85.07
2022-10-15T06:30:05.720Z,85.15
2022-10-15T06:32:32.962Z,97.18
2022-10-15T06:35:00.279Z,85.88
2022-10-15T06:37:29.916Z,88.68
2022-10-15T06:39:59.158Z,88.55
2022-10-15T06:42:26.280Z,85.28
2022-10-15T06:44:55.837Z,90.78
2022-10-15T06:47:23.280Z,84.40
2022-10-15T06:49:50.741Z,89.00
2022-10-15T06:52:17.978Z,82.50
2022-10-15T06:54:45.126Z,82.65
2022-10-15T06:57:14.295Z,87.32
2022-10-15T06:59:41.783Z,84.82
2022-10-15T07:02:14.114Z,86.78
2022-10-15T07:04:41.298Z,94.45
2022-10-15T07:07:08.496Z,94.57
2022-10-15T07:09:36.690Z,89.05
2022-10-15T07:12:05.253Z,92.38
2022-10-15T07:14:32.649Z,91.55
2022-10-15T07:17:00.051Z,87.80
2022-10-15T07:19:29.132Z,83.45
2022-10-15T07:21:56.925Z,89.03
2022-10-15T07:24:24.129Z,87.40
2022-10-15T07:26:51.332Z,90.22
2022-10-15T07:29:18.461Z,91.63
2022-10-15T07:31:46.898Z,88.53
2022-10-15T07:34:16.957Z,89.97
2022-10-15T07:36:44.095Z,87.05
2022-10-15T07:39:11.764Z,96.68
2022-10-15T07:41:39.036Z,87.10
2022-10-15T07:44:06.563Z,90.93
2022-10-15T07:46:33.913Z,94.18
2022-10-15T07:49:01.274Z,89.80
2022-10-15T07:51:28.519Z,92.63
2022-10-15T07:53:56.271Z,90.03
2022-10-15T07:56:23.522Z,89.25
2022-10-15T07:58:53.631Z,87.82
2022-10-15T08:01:21.911Z,94.20
2022-10-15T08:03:49.208Z,92.30
2022-10-15T08:06:16.987Z,93.57
2022-10-15T08:08:44.273Z,94.18
2022-10-15T08:11:15.715Z,91.38
2022-10-15T08:13:44.618Z,89.30
2022-10-15T08:16:15.215Z,87.30
2022-10-15T08:18:44.790Z,86.35
2022-10-15T08:21:12.938Z,88.32
2022-10-15T08:23:41.152Z,92.13
2022-10-15T08:26:08.578Z,84.90
2022-10-15T08:28:36.553Z,89.07
2022-10-15T08:31:05.968Z,90.07
2022-10-15T08:33:36.768Z,89.28
2022-10-15T08:36:08.297Z,89.70
2022-10-15T08:38:35.771Z,88.25
2022-10-15T08:41:11.509Z,84.95
2022-10-15T08:43:42.209Z,93.63
2022-10-15T08:46:36.859Z,85.93
2022-10-15T08:49:07.407Z,96.57
2022-10-15T08:51:53.473Z,92.78
2022-10-15T08:57:05.950Z,96.97
2022-10-15T08:59:55.785Z,97.65
2022-10-15T09:02:55.240Z,95.88
2022-10-15T09:06:02.454Z,93.03
2022-10-15T09:08:50.705Z,103.20
2022-10-15T09:12:04.693Z,94.88
2022-10-15T09:14:38.286Z,91.55
2022-10-15T09:17:20.544Z,87.18
2022-10-15T09:19:54.743Z,98.38
2022-10-15T09:22:32.200Z,104.38
2022-10-15T09:24:59.578Z,96.97
2022-10-15T09:27:38.153Z,102.20
2022-10-15T09:30:43.611Z,101.13
2022-10-15T09:33:50.623Z,102.15
2022-10-15T09:36:38.901Z,101.95
2022-10-15T09:40:22.616Z,99.10
2022-10-15T09:42:52.611Z,102.70
2022-10-15T09:45:20.589Z,103.15
2022-10-15T09:47:47.849Z,102.57
2022-10-15T09:50:15.850Z,106.97
2022-10-15T09:54:04.337Z,105.15
2022-10-15T09:56:49.924Z,100.60
2022-10-15T09:59:20.778Z,110.72
2022-10-15T10:02:19.879Z,101.15
2022-10-15T10:04:47.296Z,99.78
2022-10-15T10:07:38.487Z,105.25
2022-10-15T10:10:29.449Z,101.50
2022-10-15T10:12:57.268Z,110.32
2022-10-15T10:15:43.533Z,108.85
2022-10-15T10:18:23.903Z,104.30
2022-10-15T10:21:29.067Z,109.15
2022-10-15T10:24:17.247Z,103.07
2022-10-15T10:26:47.286Z,110.97
2022-10-15T10:29:33.402Z,114.82
2022-10-15T10:32:26.990Z,109.45
2022-10-15T10:34:55.149Z,108.43
2022-10-15T10:37:23.191Z,117.45
2022-10-15T10:40:01.073Z,113.00
2022-10-15T10:42:34.779Z,119.72
2022-10-15T10:45:23.798Z,114.18
2022-10-15T10:47:51.364Z,117.28
2022-10-15T10:50:37.711Z,115.25
2022-10-15T10:53:24.272Z,118.85
2022-10-15T10:55:55.784Z,122.07
2022-10-15T10:58:29.534Z,122.88
2022-10-15T11:00:58.004Z,120.93
2022-10-15T11:03:45.623Z,121.38
2022-10-15T11:06:51.166Z,118.88
2022-10-15T11:10:12.017Z,113.80
2022-10-15T11:13:04.088Z,111.30
2022-10-15T11:16:13.537Z,116.05
2022-10-15T11:18:54.029Z,112.43
2022-10-15T11:22:11.628Z,106.82
2022-10-15T11:25:22.817Z,114.82
2022-10-15T11:28:51.671Z,117.88
2022-10-15T11:32:14.659Z,98.90
2022-10-15T11:35:53.011Z,99.85
2022-10-15T11:39:00.619Z,104.95
2022-10-15T11:41:47.164Z,98.68
2022-10-15T11:44:36.610Z,102.68
2022-10-15T11:47:44.431Z,94.63
2022-10-15T11:50:29.693Z,101.53
2022-10-15T11:53:37.457Z,96.25
2022-10-15T11:56:21.130Z,89.72
2022-10-15T11:59:04.672Z,96.65
2022-10-15T12:01:48.659Z,90.25
2022-10-15T12:04:43.599Z,94.47
2022-10-15T12:07:23.766Z,81.47
2022-10-15T12:10:06.292Z,75.82
2022-10-15T12:13:16.825Z,75.10
2022-10-15T12:16:34.308Z,67.28
2022-10-15T12:19:25.346Z,72.28
2022-10-15T12:21:56.911Z,79.68
2022-10-15T12:24:44.387Z,69.85
2022-10-15T12:27:24.689Z,72.78
2022-10-15T12:30:19.201Z,67.53
2022-10-15T12:32:48.589Z,78.32
2022-10-15T12:35:15.809Z,70.93
2022-10-15T12:37:46.683Z,66.57
2022-10-15T12:40:28.331Z,65.00
2022-10-15T12:43:17.805Z,66.50
2022-10-15T12:46:14.392Z,71.43
2022-10-15T12:48:47.188Z,66.65
2022-10-15T12:51:23.045Z,62.83
2022-10-15T12:53:54.529Z,64.22
2022-10-15T12:56:25.332Z,62.60
2022-10-15T12:58:56.752Z,66.35
2022-10-15T13:01:23.860Z,68.10
2022-10-15T13:03:51.217Z,62.28
2022-10-15T13:06:21.154Z,60.17
2022-10-15T13:09:11.766Z,54.03
2022-10-15T13:11:54.799Z,50.78
2022-10-15T13:14:38.755Z,51.38
2022-10-15T13:17:20.557Z,59.90
2022-10-15T13:20:07.831Z,47.78
2022-10-15T13:22:37.266Z,52.25
2022-10-15T13:25:16.028Z,47.78
2022-10-15T13:27:43.701Z,49.20
2022-10-15T13:30:18.268Z,51.20
2022-10-15T13:32:53.813Z,54.42
2022-10-15T13:35:34.608Z,48.28
2022-10-15T13:38:04.778Z,42.35
2022-10-15T13:40:32.836Z,51.78
2022-10-15T13:43:21.805Z,45.90
2022-10-15T13:45:56.498Z,43.28
2022-10-15T13:48:31.796Z,39.58
2022-10-15T13:51:03.410Z,37.28
2022-10-15T13:53:40.588Z,38.25
2022-10-15T13:56:31.969Z,40.03
2022-10-15T13:59:03.821Z,38.28
2022-10-15T14:01:34.811Z,39.72
2022-10-15T14:04:03.671Z,37.53
2022-10-15T14:06:41.709Z,45.47
2022-10-15T14:09:31.916Z,42.30
2022-10-15T14:12:03.218Z,42.50
2022-10-15T14:14:49.353Z,45.90
2022-10-15T14:17:19.395Z,40.05
2022-10-15T14:20:22.068Z,40.17
2022-10-15T14:22:49.447Z,40.83
2022-10-15T14:25:25.170Z,40.22
2022-10-15T14:27:53.104Z,46.45
2022-10-15T14:30:34.146Z,39.70
2022-10-15T14:33:01.409Z,41.33
2022-10-15T14:35:36.391Z,41.13
2022-10-15T14:38:10.555Z,39.78
2022-10-15T14:40:37.937Z,34.80
2022-10-15T14:43:07.408Z,38.25
2022-10-15T14:45:58.295Z,36.78
2022-10-15T14:48:28.740Z,36.88
2022-10-15T14:51:03.648Z,38.03
2022-10-15T14:53:44.950Z,37.55
2022-10-15T14:56:23.255Z,42.15
2022-10-15T14:58:56.766Z,34.22
2022-10-15T15:01:27.464Z,33.50
2022-10-15T15:03:57.081Z,35.15
2022-10-15T15:06:24.650Z,36.60
2022-10-15T15:08:51.992Z,34.70
2022-10-15T15:11:24.416Z,34.13
2022-10-15T15:13:52.451Z,34.08
2022-10-15T15:16:20.014Z,36.55
2022-10-15T15:18:48.699Z,34.85
2022-10-15T15:21:23.610Z,31.50
2022-10-15T15:23:51.235Z,36.08
2022-10-15T15:26:18.640Z,34.58
2022-10-15T15:28:45.867Z,35.17
2022-10-15T15:31:19.075Z,35.33
2022-10-15T15:33:46.485Z,36.85
2022-10-15T15:36:20.868Z,38.58
2022-10-15T15:38:51.653Z,39.83
2022-10-15T15:41:23.869Z,40.80
2022-10-15T15:43:53.402Z,37.78
2022-10-15T15:46:20.789Z,41.22
2022-10-15T15:48:48.138Z,44.42
2022-10-15T15:51:27.792Z,43.90
2022-10-15T15:53:55.889Z,43.53
2022-10-15T15:56:23.785Z,43.10
2022-10-15T15:58:51.777Z,47.33
2022-10-15T16:01:20.403Z,47.60
2022-10-15T16:03:47.701Z,49.38
2022-10-15T16:06:15.046Z,57.40
2022-10-15T16:08:42.280Z,48.00
2022-10-15T16:11:09.712Z,56.17
2022-10-15T16:13:37.859Z,53.67
2022-10-15T16:16:05.823Z,55.75
2022-10-15T16:18:33.025Z,61.80
2022-10-15T16:21:00.287Z,65.97
2022-10-15T16:23:27.581Z,65.57
2022-10-15T16:25:57.382Z,66.68
2022-10-15T16:28:24.715Z,63.65
2022-10-15T16:30:51.958Z,69.07
2022-10-15T16:33:19.087Z,63.33
2022-10-15T16:35:53.428Z,67.35
2022-10-15T16:38:20.664Z,73.88
2022-10-15T16:40:47.839Z,64.57
2022-10-15T16:43:14.987Z,70.30
2022-10-15T16:45:42.255Z,69.85
2022-10-15T16:48:09.460Z,74.82
2022-10-15T16:50:36.768Z,75.28
2022-10-15T16:53:04.111Z,70.80
2022-10-15T16:55:32.322Z,75.50
2022-10-15T16:57:59.547Z,69.25
2022-10-15T17:00:26.800Z,66.07
2022-10-15T17:02:55.059Z,73.30
2022-10-15T17:05:22.286Z,72.68
2022-10-15T17:07:49.489Z,71.70
2022-10-15T17:10:16.742Z,72.55
2022-10-15T17:12:43.924Z,73.95
2022-10-15T17:15:11.313Z,77.00
2022-10-15T17:17:38.596Z,79.18
2022-10-15T17:20:06.772Z,80.72
2022-10-15T17:22:34.901Z,78.68
2022-10-15T17:25:02.071Z,73.70
2022-10-15T17:27:29.416Z,73.53
2022-10-15T17:29:56.708Z,75.75
2022-10-15T17:32:25.594Z,81.65
2022-10-15T17:34:53.110Z,82.28
2022-10-15T17:37:20.403Z,83.90
2022-10-15T17:39:47.788Z,81.35
2022-10-15T17:42:15.998Z,84.75
2022-10-15T17:44:43.152Z,76.45
2022-10-15T17:47:10.426Z,82.65
2022-10-15T17:49:37.643Z,87.20
2022-10-15T17:52:05.808Z,82.82
2022-10-15T17:54:32.998Z,85.40
2022-10-15T17:57:00.251Z,86.90
2022-10-15T17:59:27.649Z,83.82
2022-10-15T18:01:59.570Z,83.38
2022-10-15T18:04:29.648Z,80.53
2022-10-15T18:06:57.325Z,83.85
2022-10-15T18:09:28.138Z,89.78
2022-10-15T18:11:57.807Z,81.72
2022-10-15T18:14:30.007Z,81.03
2022-10-15T18:16:58.111Z,86.05
2022-10-15T18:19:26.597Z,89.18
2022-10-15T18:21:55.398Z,85.13
2022-10-15T18:24:24.085Z,84.43
2022-10-15T18:26:52.249Z,83.47
2022-10-15T18:29:20.099Z,88.18
2022-10-15T18:31:47.574Z,89.82
2022-10-15T18:34:15.028Z,80.55
2022-10-15T18:36:43.533Z,87.72
2022-10-15T18:39:11.699Z,91.20
2022-10-15T18:41:40.845Z,85.55
2022-10-15T18:44:20.720Z,87.70
2022-10-15T18:46:47.907Z,87.65
2022-10-15T18:49:18.465Z,86.55
2022-10-15T18:51:46.544Z,88.50
2022-10-15T18:54:14.007Z,95.90
2022-10-15T18:56:41.531Z,94.50
2022-10-15T18:59:08.690Z,100.38
2022-10-15T19:01:44.054Z,100.22
2022-10-15T19:06:50.046Z,98.57
2022-10-15T19:09:22.224Z,89.30
2022-10-15T19:11:53.352Z,93.72
2022-10-15T19:14:22.215Z,97.65
2022-10-15T19:16:49.993Z,92.55
2022-10-15T19:19:21.524Z,101.45
2022-10-15T19:21:50.876Z,95.47
2022-10-15T19:24:20.416Z,100.47
2022-10-15T19:26:48.746Z,92.65
2022-10-15T19:29:16.385Z,94.65
2022-10-15T19:31:49.105Z,97.38
2022-10-15T19:34:16.610Z,100.75
2022-10-15T19:36:47.795Z,101.40
2022-10-15T19:39:21.676Z,92.15
2022-10-15T19:41:51.977Z,91.68
2022-10-15T19:44:24.950Z,91.38
2022-10-15T19:46:53.819Z,87.82
2022-10-15T19:49:21.851Z,93.30
2022-10-15T19:51:50.523Z,87.30
2022-10-15T19:54:18.047Z,91.88
2022-10-15T19:56:45.900Z,91.93
2022-10-15T19:59:13.766Z,90.65
2022-10-15T20:01:41.116Z,96.25
2022-10-15T20:04:08.395Z,88.35
2022-10-15T20:06:40.860Z,91.28
2022-10-15T20:09:08.945Z,92.65
2022-10-15T20:11:37.793Z,88.50
2022-10-15T20:14:05.576Z,88.95
2022-10-15T20:16:33.662Z,89.07
2022-10-15T20:19:06.883Z,89.38
2022-10-15T20:21:34.389Z,94.63
2022-10-15T20:24:04.951Z,88.25
2022-10-15T20:26:33.023Z,89.65
2022-10-15T20:29:00.539Z,86.78
2022-10-15T20:31:32.217Z,90.13
2022-10-15T20:34:00.864Z,89.93
2022-10-15T20:36:28.570Z,90.18
2022-10-15T20:38:57.451Z,84.22
2022-10-15T20:41:24.777Z,88.68
2022-10-15T20:43:55.139Z,84.50
2022-10-15T20:46:41.229Z,93.88
2022-10-15T20:49:15.598Z,99.38
2022-10-15T20:51:44.574Z,101.75
2022-10-15T20:54:13.338Z,99.75
2022-10-15T20:56:41.373Z,97.32
2022-10-15T20:59:08.746Z,98.65
2022-10-15T21:01:36.497Z,102.38
2022-10-15T21:04:05.307Z,100.57
2022-10-15T21:06:33.206Z,99.60
2022-10-15T21:09:00.795Z,105.97
2022-10-15T21:11:27.933Z,95.85
2022-10-15T21:13:55.461Z,99.43
2022-10-15T21:16:25.887Z,95.20
2022-10-15T21:18:55.723Z,96.22
2022-10-15T21:21:23.255Z,98.20
2022-10-15T21:23:50.456Z,93.00
2022-10-15T21:26:19.122Z,97.53
2022-10-15T21:28:46.846Z,96.25
2022-10-15T21:31:17.380Z,96.80
2022-10-15T21:33:46.010Z,97.03
2022-10-15T21:36:21.789Z,93.97
2022-10-15T21:38:54.275Z,96.57
2022-10-15T21:41:26.184Z,95.35
2022-10-15T21:43:53.846Z,95.57
2022-10-15T21:46:21.416Z,93.15
2022-10-15T21:48:49.348Z,93.05
2022-10-15T21:51:20.915Z,92.45
2022-10-15T21:53:48.244Z,101.60
2022-10-15T21:56:16.893Z,93.75
2022-10-15T21:58:44.657Z,86.25
2022-10-15T22:01:28.873Z,88.32
2022-10-15T22:04:05.977Z,91.40
2022-10-15T22:06:35.084Z,86.75
2022-10-15T22:09:04.389Z,83.57
2022-10-15T22:11:36.321Z,80.82
2022-10-15T22:14:08.673Z,82.90
2022-10-15T22:16:38.755Z,83.93
2022-10-15T22:19:09.126Z,85.75
2022-10-15T22:21:38.627Z,83.60
2022-10-15T22:24:20.668Z,86.68
2022-10-15T22:26:53.838Z,83.47
2022-10-15T22:29:34.533Z,83.43
2022-10-15T22:32:02.668Z,84.85
2022-10-15T22:34:30.162Z,83.03
2022-10-15T22:36:57.281Z,79.72
2022-10-15T22:39:24.863Z,75.50
2022-10-15T22:41:52.079Z,72.80
2022-10-15T22:44:21.554Z,74.55
2022-10-15T22:46:50.012Z,71.70
2022-10-15T22:49:22.040Z,71.07
2022-10-15T22:51:50.898Z,69.70
2022-10-15T22:54:21.810Z,67.38
2022-10-15T22:56:51.082Z,71.82
2022-10-15T22:59:19.125Z,67.47
2022-10-15T23:01:46.422Z,65.93
2022-10-15T23:04:16.379Z,63.72
2022-10-15T23:06:43.880Z,65.32
2022-10-15T23:09:18.226Z,72.45
2022-10-15T23:11:46.517Z,66.00
2022-10-15T23:14:16.491Z,67.40
2022-10-15T23:16:47.660Z,65.82
2022-10-15T23:19:22.348Z,64.95
2022-10-15T23:21:57.003Z,65.30
2022-10-15T23:24:26.951Z,61.57
2022-10-15T23:26:54.261Z,67.07
2022-10-15T23:29:25.305Z,68.57
2022-10-15T23:31:54.068Z,68.18
2022-10-15T23:34:25.875Z,67.65
2022-10-15T23:36:54.129Z,64.32
2022-10-15T23:39:26.799Z,70.85
2022-10-15T23:41:55.254Z,65.40
2022-10-15T23:44:25.532Z,61.75
2022-10-15T23:46:53.062Z,66.13
2022-10-15T23:49:20.390Z,68.47
2022-10-15T23:51:47.549Z,63.63
2022-10-15T23:54:18.148Z,63.33
2022-10-15T23:56:47.330Z,64.82
2022-10-15T23:59:16.548Z,66.78
